Time;durP1;ratioP1;P1;durP2;ratioP2;P2;SDS_P1;SDS_P2;PMS_P1;PMS_P2;Temp;Humidity;BMP_temperature;BMP_pressure;BME280_temperature;BME280_humidity;BME280_pressure;Samples;Min_cycle;Max_cycle;Signal;HPM_P1;HPM_P2
2022/04/03 00:01:26;;;;;;;1.60;1.20;;;7.00;76.20;;;;;;5010721;28;20225;-46
2022/04/03 00:03:54;;;;;;;1.88;1.70;;;7.00;76.30;;;;;;5011891;28;20235;-47
2022/04/03 00:06:22;;;;;;;1.42;1.20;;;7.00;76.20;;;;;;5016245;28;20600;-49
2022/04/03 00:08:50;;;;;;;2.03;1.55;;;7.00;76.20;;;;;;5011818;28;20586;-48
2022/04/03 00:11:20;;;;;;;2.35;1.65;;;7.00;76.20;;;;;;5011634;28;20222;-48
2022/04/03 00:13:50;;;;;;;1.60;1.20;;;7.00;76.30;;;;;;5011348;28;20731;-49
2022/04/03 00:16:18;;;;;;;2.00;1.40;;;7.00;76.30;;;;;;5010042;28;20229;-48
2022/04/03 00:18:47;;;;;;;1.65;1.52;;;7.00;76.30;;;;;;5011796;28;20632;-47
2022/04/03 00:21:15;;;;;;;1.60;1.50;;;7.00;76.30;;;;;;5017542;28;20216;-46
2022/04/03 00:23:44;;;;;;;1.98;1.48;;;7.00;76.30;;;;;;5018015;28;20222;-48
2022/04/03 00:26:12;;;;;;;1.40;1.02;;;7.00;76.20;;;;;;5010710;28;20218;-48
2022/04/03 00:28:40;;;;;;;1.88;1.63;;;7.00;76.30;;;;;;5011178;28;20225;-48
2022/04/03 00:31:12;;;;;;;1.55;1.33;;;7.00;76.20;;;;;;5010480;28;20320;-48
2022/04/03 00:33:40;;;;;;;1.52;1.33;;;7.00;76.30;;;;;;5011010;28;20773;-48
2022/04/03 00:36:08;;;;;;;1.42;1.33;;;7.00;77.40;;;;;;5011005;28;20251;-47
2022/04/03 00:38:37;;;;;;;1.48;1.27;;;7.00;76.30;;;;;;5010353;28;20212;-50
2022/04/03 00:41:05;;;;;;;1.42;1.33;;;7.00;76.30;;;;;;5010320;28;20226;-49
2022/04/03 00:43:36;;;;;;;1.92;1.38;;;7.00;76.30;;;;;;5020706;28;20213;-47
2022/04/03 00:46:06;;;;;;;1.85;1.48;;;7.00;76.30;;;;;;5026282;28;20272;-47
2022/04/03 00:48:37;;;;;;;1.75;1.45;;;7.00;76.30;;;;;;5011561;28;20194;-47
2022/04/03 00:51:05;;;;;;;1.10;0.98;;;7.00;76.30;;;;;;5015369;28;20247;-46
2022/04/03 00:53:33;;;;;;;1.90;1.80;;;7.00;76.20;;;;;;5019208;28;20232;-47
2022/04/03 00:56:01;;;;;;;1.23;1.13;;;7.00;76.30;;;;;;5010367;28;20225;-47
2022/04/03 00:58:31;;;;;;;1.80;1.50;;;7.00;76.30;;;;;;5010731;28;20194;-47
2022/04/03 01:00:59;;;;;;;1.52;1.25;;;7.00;76.30;;;;;;5020869;28;20225;-50
2022/04/03 01:03:28;;;;;;;1.67;1.30;;;7.00;76.30;;;;;;5019695;28;20646;-47
2022/04/03 01:05:58;;;;;;;1.55;1.45;;;7.00;76.30;;;;;;5010211;28;20629;-44
2022/04/03 01:08:26;;;;;;;1.40;1.30;;;7.00;76.30;;;;;;5025522;28;20275;-45
2022/04/03 01:10:56;;;;;;;2.28;1.25;;;7.00;76.30;;;;;;5016980;28;20427;-47
2022/04/03 01:13:25;;;;;;;1.95;1.30;;;6.90;76.30;;;;;;5010946;28;20222;-48
2022/04/03 01:15:54;;;;;;;1.42;1.25;;;6.90;76.20;;;;;;5009661;28;20719;-45
2022/04/03 01:18:23;;;;;;;1.75;1.65;;;6.90;77.50;;;;;;5010723;28;20201;-48
2022/04/03 01:20:53;;;;;;;1.33;1.23;;;6.90;76.30;;;;;;5010229;28;20248;-49
2022/04/03 01:23:25;;;;;;;2.42;1.45;;;6.90;76.20;;;;;;5009697;28;20210;-48
2022/04/03 01:25:54;;;;;;;1.50;1.40;;;6.90;76.30;;;;;;5022864;28;20186;-46
2022/04/03 01:28:24;;;;;;;1.70;1.60;;;6.90;76.20;;;;;;5021637;28;20292;-48
2022/04/03 01:30:52;;;;;;;1.90;1.30;;;7.00;76.30;;;;;;5030066;28;20193;-49
2022/04/03 01:33:20;;;;;;;1.80;1.35;;;6.90;76.30;;;;;;5013317;28;20296;-51
2022/04/03 01:35:48;;;;;;;2.45;1.58;;;7.00;76.30;;;;;;5020911;28;20608;-49
2022/04/03 01:38:17;;;;;;;1.42;1.10;;;6.90;76.30;;;;;;5028503;28;20284;-46
2022/04/03 01:40:46;;;;;;;1.50;1.35;;;6.90;76.50;;;;;;5009945;28;20449;-48
2022/04/03 01:43:15;;;;;;;1.45;1.35;;;6.90;76.30;;;;;;5010638;28;20656;-47
2022/04/03 01:45:43;;;;;;;1.30;1.20;;;6.90;76.30;;;;;;5009073;28;20197;-46
2022/04/03 01:48:13;;;;;;;1.35;1.20;;;6.90;76.30;;;;;;5010184;28;20281;-47
2022/04/03 01:50:41;;;;;;;1.00;0.88;;;6.90;76.30;;;;;;5009693;28;20738;-47
2022/04/03 01:53:09;;;;;;;1.70;1.20;;;6.90;76.30;;;;;;5011927;28;20214;-46
2022/04/03 01:55:37;;;;;;;1.65;0.90;;;6.90;76.30;;;;;;5026666;28;20197;-47
2022/04/03 01:58:08;;;;;;;1.48;1.35;;;6.90;76.30;;;;;;5029546;28;20667;-47
2022/04/03 02:00:39;;;;;;;1.65;1.50;;;6.90;76.30;;;;;;5024073;28;20181;-49
2022/04/03 02:03:08;;;;;;;2.25;1.25;;;6.90;76.30;;;;;;5014253;28;20196;-47
2022/04/03 02:05:36;;;;;;;1.67;1.40;;;6.90;76.30;;;;;;5015143;28;20205;-49
2022/04/03 02:08:05;;;;;;;1.50;1.40;;;6.90;76.30;;;;;;5013821;28;20182;-48
2022/04/03 02:10:34;;;;;;;1.73;1.63;;;6.90;76.30;;;;;;5014030;28;20653;-46
2022/04/03 02:13:02;;;;;;;1.38;1.20;;;6.90;76.30;;;;;;5013641;28;20220;-47
2022/04/03 02:15:30;;;;;;;1.45;1.35;;;6.90;76.30;;;;;;5013799;28;20272;-46
2022/04/03 02:17:59;;;;;;;1.83;1.20;;;6.90;76.40;;;;;;5012698;28;20209;-48
2022/04/03 02:20:28;;;;;;;1.15;1.05;;;6.90;76.30;;;;;;5014353;28;20277;-47
2022/04/03 02:22:58;;;;;;;2.15;1.50;;;6.90;76.30;;;;;;5011864;28;20700;-48
2022/04/03 02:25:26;;;;;;;4.10;1.45;;;6.90;76.30;;;;;;5013120;28;20233;-47
2022/04/03 02:27:54;;;;;;;1.88;1.50;;;6.90;76.30;;;;;;5017965;28;20240;-46
2022/04/03 02:30:23;;;;;;;1.58;1.48;;;6.90;76.30;;;;;;5033761;28;20189;-47
2022/04/03 02:32:52;;;;;;;1.40;1.30;;;6.90;76.30;;;;;;5017443;28;20210;-47
2022/04/03 02:35:22;;;;;;;1.50;1.35;;;6.90;76.30;;;;;;5013658;28;20190;-49
2022/04/03 02:37:50;;;;;;;1.40;1.13;;;6.90;76.30;;;;;;5012809;28;20225;-46
2022/04/03 02:40:18;;;;;;;1.38;1.20;;;6.90;76.30;;;;;;5013279;28;20221;-48
2022/04/03 02:42:46;;;;;;;1.50;1.40;;;6.90;76.30;;;;;;5013289;28;20300;-48
2022/04/03 02:45:16;;;;;;;1.58;1.10;;;6.90;76.30;;;;;;5013204;28;20609;-46
2022/04/03 02:47:50;;;;;;;1.77;1.63;;;6.90;76.30;;;;;;5012530;28;20309;-47
2022/04/03 02:50:19;;;;;;;1.80;1.05;;;6.90;76.30;;;;;;5013695;28;20553;-46
2022/04/03 02:52:50;;;;;;;1.52;1.35;;;6.90;76.20;;;;;;5017719;28;20217;-49
2022/04/03 02:55:18;;;;;;;1.95;1.08;;;6.80;76.20;;;;;;5032870;28;20268;-46
2022/04/03 02:57:47;;;;;;;2.03;1.20;;;6.80;76.10;;;;;;5032179;28;20596;-47
2022/04/03 03:00:17;;;;;;;1.80;1.50;;;6.90;76.30;;;;;;5032472;28;20203;-46
2022/04/03 03:02:47;;;;;;;1.63;1.30;;;6.90;76.30;;;;;;5028118;28;20225;-45
2022/04/03 03:05:16;;;;;;;1.75;1.65;;;6.90;76.30;;;;;;5032602;28;20193;-49
2022/04/03 03:07:46;;;;;;;2.10;1.90;;;6.80;76.20;;;;;;5027606;28;20245;-44
2022/04/03 03:10:17;;;;;;;1.38;1.25;;;6.80;76.20;;;;;;5013214;28;20190;-48
2022/04/03 03:12:46;;;;;;;2.65;1.40;;;6.80;76.20;;;;;;5027180;28;20217;-47
2022/04/03 03:15:15;;;;;;;1.73;1.63;;;6.80;76.30;;;;;;5012831;28;20198;-47
2022/04/03 03:17:43;;;;;;;2.17;1.52;;;6.80;76.20;;;;;;5011515;28;20217;-47
2022/04/03 03:20:18;;;;;;;1.55;1.45;;;6.80;76.10;;;;;;5013029;28;20212;-49
2022/04/03 03:22:46;;;;;;;2.10;1.35;;;6.80;76.20;;;;;;5011908;28;20218;-48
2022/04/03 03:25:16;;;;;;;1.25;0.93;;;6.80;76.20;;;;;;5012502;28;20695;-46
2022/04/03 03:27:44;;;;;;;1.77;1.50;;;6.80;76.20;;;;;;5021779;28;20227;-49
2022/04/03 03:30:15;;;;;;;1.73;1.00;;;6.80;76.30;;;;;;5016500;28;20241;-48
2022/04/03 03:32:43;;;;;;;1.55;1.10;;;6.80;76.20;;;;;;5022955;28;20696;-47
2022/04/03 03:35:11;;;;;;;2.72;1.05;;;6.80;76.30;;;;;;5032405;28;20241;-47
2022/04/03 03:37:40;;;;;;;1.95;1.77;;;6.80;76.30;;;;;;5027613;28;20252;-46
2022/04/03 03:40:11;;;;;;;2.38;1.60;;;6.80;76.20;;;;;;5013725;28;20260;-47
2022/04/03 03:42:42;;;;;;;1.42;1.00;;;6.80;76.20;;;;;;5020580;28;20229;-49
2022/04/03 03:45:12;;;;;;;2.35;1.38;;;6.80;76.20;;;;;;5019136;28;20414;-46
2022/04/03 03:47:40;;;;;;;2.03;1.65;;;6.80;76.20;;;;;;5012596;28;20228;-46
2022/04/03 03:50:09;;;;;;;2.20;1.88;;;6.80;76.20;;;;;;5018757;28;20754;-47
2022/04/03 03:52:37;;;;;;;1.50;1.30;;;6.80;76.20;;;;;;5024788;28;20249;-49
2022/04/03 03:55:06;;;;;;;1.85;1.20;;;6.80;76.30;;;;;;5011659;28;20712;-49
2022/04/03 03:57:34;;;;;;;1.92;1.50;;;6.80;76.20;;;;;;5022049;28;20286;-46
2022/04/03 04:00:05;;;;;;;1.75;1.10;;;6.80;76.20;;;;;;5027491;28;20198;-45
2022/04/03 04:02:39;;;;;;;1.27;1.02;;;6.80;76.30;;;;;;5010993;28;20613;-45
2022/04/03 04:05:09;;;;;;;1.30;1.20;;;6.80;76.30;;;;;;5013225;28;20213;-47
2022/04/03 04:07:42;;;;;;;1.60;1.38;;;6.80;76.30;;;;;;5027088;28;20225;-48
2022/04/03 04:10:12;;;;;;;2.45;1.55;;;6.80;76.30;;;;;;5013279;28;20217;-47
2022/04/03 04:12:40;;;;;;;1.40;1.30;;;6.70;76.00;;;;;;5011708;28;20228;-47
2022/04/03 04:15:12;;;;;;;1.45;1.20;;;6.80;76.10;;;;;;5015424;28;20206;-47
2022/04/03 04:17:42;;;;;;;1.38;1.27;;;6.80;76.20;;;;;;5011009;28;20217;-48
2022/04/03 04:20:12;;;;;;;2.00;1.30;;;6.80;76.10;;;;;;5012631;28;20202;-46
2022/04/03 04:22:41;;;;;;;2.30;1.95;;;6.70;76.00;;;;;;5010341;28;20251;-48
2022/04/03 04:25:11;;;;;;;2.33;1.50;;;6.70;76.20;;;;;;5010784;28;20585;-49
2022/04/03 04:27:39;;;;;;;1.30;1.20;;;6.80;76.20;;;;;;5011293;28;20251;-48
2022/04/03 04:30:10;;;;;;;1.48;1.30;;;6.80;76.10;;;;;;5012625;28;20209;-46
2022/04/03 04:32:38;;;;;;;1.80;1.42;;;6.70;76.10;;;;;;5010215;28;20217;-48
2022/04/03 04:35:07;;;;;;;1.52;1.17;;;6.80;76.20;;;;;;5011632;28;20248;-48
2022/04/03 04:37:35;;;;;;;1.40;1.30;;;6.70;76.10;;;;;;5010801;28;20213;-45
2022/04/03 04:40:05;;;;;;;1.95;1.30;;;6.70;76.10;;;;;;5026011;28;20637;-46
2022/04/03 04:42:33;;;;;;;2.00;1.30;;;6.70;76.10;;;;;;5030256;28;20251;-47
2022/04/03 04:45:02;;;;;;;1.83;1.38;;;6.70;76.20;;;;;;5030168;28;20239;-47
2022/04/03 04:47:36;;;;;;;1.25;1.05;;;6.70;76.10;;;;;;5026633;28;20224;-48
2022/04/03 04:50:08;;;;;;;1.23;1.13;;;6.70;76.10;;;;;;5031387;28;20217;-48
2022/04/03 04:52:37;;;;;;;1.40;1.30;;;6.70;76.10;;;;;;5026734;28;20213;-48
2022/04/03 04:55:06;;;;;;;1.40;1.30;;;6.70;76.10;;;;;;5011060;28;20244;-48
2022/04/03 04:57:35;;;;;;;2.63;2.15;;;6.70;76.00;;;;;;5011371;28;20313;-50
2022/04/03 05:00:06;;;;;;;1.33;0.82;;;6.70;76.00;;;;;;5010471;28;20198;-48
2022/04/03 05:02:35;;;;;;;2.65;1.50;;;6.70;76.10;;;;;;5010239;28;20248;-48
2022/04/03 05:05:05;;;;;;;1.75;1.35;;;6.70;76.10;;;;;;5010517;28;20307;-48
2022/04/03 05:07:34;;;;;;;1.52;1.23;;;6.70;76.10;;;;;;5019971;28;20297;-45
2022/04/03 05:10:04;;;;;;;1.50;1.40;;;6.70;76.00;;;;;;5017478;28;20185;-48
2022/04/03 05:12:37;;;;;;;1.00;1.00;;;6.70;76.10;;;;;;5031028;28;20221;-50
2022/04/03 05:15:08;;;;;;;1.45;1.10;;;6.70;76.10;;;;;;5030846;28;20771;-47
2022/04/03 05:17:38;;;;;;;1.35;1.10;;;6.70;76.10;;;;;;5029297;28;20251;-47
2022/04/03 05:20:07;;;;;;;2.90;1.25;;;6.70;76.10;;;;;;5013047;28;20209;-46
2022/04/03 05:22:36;;;;;;;1.73;1.58;;;6.70;76.00;;;;;;5026733;28;20213;-46
2022/04/03 05:25:04;;;;;;;2.17;1.10;;;6.70;76.10;;;;;;5019714;28;20355;-47
2022/04/03 05:27:33;;;;;;;1.50;1.10;;;6.70;76.10;;;;;;5030621;28;20229;-49
2022/04/03 05:30:03;;;;;;;2.53;1.58;;;6.70;76.10;;;;;;5029633;28;20272;-48
2022/04/03 05:32:32;;;;;;;1.80;1.30;;;6.70;76.10;;;;;;5010309;28;20248;-47
2022/04/03 05:35:02;;;;;;;1.70;1.13;;;6.70;76.10;;;;;;5010688;28;20214;-50
2022/04/03 05:37:31;;;;;;;2.30;1.30;;;6.60;76.00;;;;;;5009235;28;20231;-45
2022/04/03 05:40:00;;;;;;;2.20;1.25;;;6.70;76.10;;;;;;5011058;28;20293;-45
2022/04/03 05:42:29;;;;;;;1.20;1.10;;;6.60;76.00;;;;;;5010601;28;20308;-46
2022/04/03 05:44:57;;;;;;;1.45;1.02;;;6.60;76.00;;;;;;5010832;28;20214;-49
2022/04/03 05:47:25;;;;;;;1.10;1.00;;;6.60;76.00;;;;;;5009843;28;20241;-49
2022/04/03 05:49:53;;;;;;;1.38;1.10;;;6.60;75.90;;;;;;5016105;28;20264;-47
2022/04/03 05:52:23;;;;;;;1.70;1.48;;;6.70;76.20;;;;;;5018259;28;20739;-48
2022/04/03 05:54:51;;;;;;;1.67;1.15;;;6.60;76.00;;;;;;5012350;28;20233;-45
2022/04/03 05:57:19;;;;;;;1.23;1.00;;;6.60;76.10;;;;;;5030053;28;20216;-49
2022/04/03 05:59:48;;;;;;;1.35;1.15;;;6.70;76.40;;;;;;5026820;28;20231;-47
2022/04/03 06:02:16;;;;;;;1.25;1.15;;;6.60;76.00;;;;;;5009362;28;20304;-46
2022/04/03 06:04:44;;;;;;;2.05;1.25;;;6.60;76.00;;;;;;5010347;28;20304;-48
2022/04/03 06:07:13;;;;;;;2.03;1.55;;;6.60;75.90;;;;;;5011341;28;20230;-51
2022/04/03 06:09:42;;;;;;;1.30;1.20;;;6.60;76.00;;;;;;5010693;28;20236;-48
2022/04/03 06:12:11;;;;;;;1.70;1.10;;;6.60;76.10;;;;;;5010206;28;20217;-49
2022/04/03 06:14:39;;;;;;;1.10;1.00;;;6.60;76.10;;;;;;5010231;28;20259;-47
2022/04/03 06:17:07;;;;;;;1.55;1.45;;;6.60;76.00;;;;;;5008847;28;20268;-47
2022/04/03 06:19:35;;;;;;;1.63;1.25;;;6.60;76.00;;;;;;5015036;28;20740;-47
2022/04/03 06:22:04;;;;;;;1.75;1.27;;;6.60;75.90;;;;;;5012384;28;20316;-46
2022/04/03 06:24:32;;;;;;;1.77;1.23;;;6.60;76.00;;;;;;5018959;28;20256;-48
2022/04/03 06:27:02;;;;;;;1.23;1.13;;;6.60;76.10;;;;;;5029156;28;20652;-48
2022/04/03 06:29:31;;;;;;;1.35;1.13;;;6.60;76.00;;;;;;5029757;28;20225;-49
2022/04/03 06:31:59;;;;;;;1.33;1.17;;;6.60;76.00;;;;;;5017171;28;20693;-46
2022/04/03 06:34:27;;;;;;;1.48;1.30;;;6.60;76.10;;;;;;5009835;28;20621;-47
2022/04/03 06:36:55;;;;;;;1.83;1.48;;;6.60;76.00;;;;;;5009666;28;20213;-49
2022/04/03 06:39:23;;;;;;;1.58;1.40;;;6.60;75.90;;;;;;5009298;28;20198;-47
2022/04/03 06:41:52;;;;;;;1.60;1.30;;;6.60;76.00;;;;;;5008811;28;20221;-48
2022/04/03 06:44:23;;;;;;;1.80;1.45;;;6.60;75.80;;;;;;5021155;28;20205;-49
2022/04/03 06:46:51;;;;;;;1.85;1.17;;;6.60;75.90;;;;;;5013157;28;20222;-48
2022/04/03 06:49:20;;;;;;;1.60;1.42;;;6.60;75.70;;;;;;5013574;28;20193;-46
2022/04/03 06:51:48;;;;;;;2.13;1.27;;;6.60;75.70;;;;;;5019356;28;20213;-47
2022/04/03 06:54:16;;;;;;;2.63;1.63;;;6.70;75.80;;;;;;5014751;28;20264;-47
2022/04/03 06:56:44;;;;;;;1.50;1.40;;;6.70;75.60;;;;;;5013220;28;20223;-47
2022/04/03 06:59:12;;;;;;;1.50;1.40;;;6.70;75.60;;;;;;5033115;28;20577;-46
2022/04/03 07:01:42;;;;;;;1.52;1.30;;;6.70;75.50;;;;;;5022578;28;20293;-47
2022/04/03 07:04:10;;;;;;;1.55;1.27;;;6.70;75.50;;;;;;5012939;28;20269;-47
2022/04/03 07:06:39;;;;;;;1.48;1.33;;;6.70;75.50;;;;;;5027885;28;20526;-47
2022/04/03 07:09:07;;;;;;;1.83;1.50;;;6.70;75.40;;;;;;5017119;28;20194;-48
2022/04/03 07:11:35;;;;;;;2.35;1.50;;;6.70;75.40;;;;;;5021869;28;20291;-50
2022/04/03 07:14:03;;;;;;;1.70;1.40;;;6.70;75.30;;;;;;5021858;28;20250;-49
2022/04/03 07:16:32;;;;;;;2.35;1.60;;;6.80;75.30;;;;;;5013164;28;20224;-49
2022/04/03 07:19:02;;;;;;;1.95;1.30;;;6.80;75.50;;;;;;5021823;28;20205;-48
2022/04/03 07:21:30;;;;;;;1.52;1.42;;;6.80;75.20;;;;;;5022867;28;20296;-47
2022/04/03 07:23:58;;;;;;;1.38;1.23;;;6.80;75.10;;;;;;5020827;28;20220;-50
2022/04/03 07:26:26;;;;;;;1.63;1.38;;;6.80;75.10;;;;;;5032119;28;20624;-49
2022/04/03 07:28:55;;;;;;;1.60;1.30;;;6.80;75.00;;;;;;5033118;28;20193;-47
2022/04/03 07:31:23;;;;;;;1.35;1.25;;;6.80;74.80;;;;;;5024629;28;20791;-47
2022/04/03 07:33:51;;;;;;;2.22;1.58;;;6.80;74.80;;;;;;5027818;28;20217;-47
2022/04/03 07:36:21;;;;;;;2.08;1.40;;;6.90;74.90;;;;;;5018401;28;20333;-47
2022/04/03 07:38:52;;;;;;;1.63;1.50;;;6.80;74.70;;;;;;5015063;28;20362;-47
2022/04/03 07:41:20;;;;;;;2.15;1.58;;;6.80;74.70;;;;;;5030934;28;20252;-48
2022/04/03 07:43:48;;;;;;;1.50;1.17;;;6.90;74.80;;;;;;5026277;28;20339;-50
2022/04/03 07:46:17;;;;;;;2.15;1.50;;;6.90;74.70;;;;;;5012037;28;20223;-50
2022/04/03 07:48:46;;;;;;;1.65;1.55;;;6.90;74.70;;;;;;5015932;28;20201;-45
2022/04/03 07:51:14;;;;;;;1.95;1.50;;;6.90;74.70;;;;;;5021250;28;20244;-49
2022/04/03 07:53:45;;;;;;;1.40;1.10;;;6.90;74.60;;;;;;5011836;28;20209;-48
2022/04/03 07:56:13;;;;;;;2.10;1.20;;;6.90;74.60;;;;;;5011796;28;20218;-45
2022/04/03 07:58:42;;;;;;;1.73;1.33;;;6.90;74.50;;;;;;5011450;28;20217;-47
2022/04/03 08:01:10;;;;;;;1.85;1.38;;;6.90;74.50;;;;;;5014125;28;20214;-47
2022/04/03 08:03:39;;;;;;;1.95;1.55;;;6.90;74.50;;;;;;5013013;28;20272;-48
2022/04/03 08:06:07;;;;;;;1.65;0.80;;;6.90;74.50;;;;;;5030589;28;20220;-46
2022/04/03 08:08:36;;;;;;;2.33;1.20;;;6.90;74.50;;;;;;5019765;28;20210;-47
2022/04/03 08:11:07;;;;;;;2.45;1.63;;;6.90;74.40;;;;;;5013091;28;20246;-48
2022/04/03 08:13:35;;;;;;;1.77;1.30;;;6.90;74.40;;;;;;5023735;28;20209;-47
2022/04/03 08:16:04;;;;;;;1.67;0.95;;;6.90;74.20;;;;;;5016754;28;20267;-47
2022/04/03 08:18:33;;;;;;;2.47;1.98;;;6.90;74.10;;;;;;5018094;28;20208;-50
2022/04/03 08:21:03;;;;;;;2.70;1.50;;;6.90;74.10;;;;;;5029676;28;20300;-50
2022/04/03 08:23:31;;;;;;;1.20;1.10;;;7.00;74.00;;;;;;5019809;28;20225;-47
2022/04/03 08:26:00;;;;;;;1.98;1.40;;;7.00;74.00;;;;;;5010618;28;20178;-48
2022/04/03 08:28:29;;;;;;;1.30;1.20;;;7.00;73.90;;;;;;5011456;28;20268;-47
2022/04/03 08:30:58;;;;;;;3.47;1.70;;;7.00;74.00;;;;;;5013825;28;20198;-47
2022/04/03 08:33:33;;;;;;;2.85;1.63;;;7.00;74.00;;;;;;5018793;28;20320;-48
2022/04/03 08:36:03;;;;;;;2.03;1.50;;;7.00;74.10;;;;;;5010076;28;20736;-50
2022/04/03 08:38:31;;;;;;;2.42;1.45;;;7.00;73.90;;;;;;5012317;28;20190;-49
2022/04/03 08:41:01;;;;;;;1.63;1.48;;;7.00;74.00;;;;;;5011392;28;20276;-48
2022/04/03 08:43:32;;;;;;;1.73;1.50;;;7.00;74.10;;;;;;5027842;28;20213;-47
2022/04/03 08:46:01;;;;;;;2.05;1.55;;;7.00;74.10;;;;;;5030302;28;20717;-47
2022/04/03 08:48:33;;;;;;;1.60;1.50;;;7.00;74.10;;;;;;5020980;28;20331;-47
2022/04/03 08:51:04;;;;;;;4.75;1.35;;;7.00;74.00;;;;;;5025339;28;20312;-46
2022/04/03 08:53:34;;;;;;;1.65;1.55;;;7.00;74.00;;;;;;5010660;28;20209;-47
2022/04/03 08:56:02;;;;;;;1.88;1.50;;;7.00;74.10;;;;;;5010336;28;20248;-48
2022/04/03 08:58:33;;;;;;;1.70;1.52;;;7.00;74.00;;;;;;5010673;28;20583;-49
2022/04/03 09:01:02;;;;;;;1.65;1.40;;;7.00;74.00;;;;;;5009791;28;20300;-48
2022/04/03 09:03:31;;;;;;;2.33;1.58;;;7.00;73.90;;;;;;5015363;28;20225;-46
2022/04/03 09:06:14;;;;;;;1.67;1.50;;;7.00;74.10;;;;;;5028139;28;20195;-48
2022/04/03 09:08:42;;;;;;;2.92;1.40;;;7.00;74.00;;;;;;5010806;28;20245;-50
2022/04/03 09:11:11;;;;;;;1.73;1.42;;;7.00;73.90;;;;;;5010405;28;20225;-49
2022/04/03 09:13:41;;;;;;;1.95;1.60;;;7.10;73.90;;;;;;5016722;28;20220;-45
2022/04/03 09:16:10;;;;;;;3.45;1.20;;;7.00;73.90;;;;;;5010457;28;20225;-49
2022/04/03 09:18:46;;;;;;;2.17;1.30;;;7.00;74.10;;;;;;5015730;28;20256;-48
2022/04/03 09:21:19;;;;;;;1.77;1.48;;;7.10;74.00;;;;;;5014491;28;20220;-48
2022/04/03 09:24:02;;;;;;;1.50;1.20;;;7.10;74.00;;;;;;5016307;28;20268;-48
2022/04/03 09:26:33;;;;;;;1.50;1.30;;;7.10;74.00;;;;;;5029815;28;20267;-49
2022/04/03 09:29:17;;;;;;;1.42;1.10;;;7.10;73.90;;;;;;5012453;28;20620;-46
2022/04/03 09:31:46;;;;;;;2.05;1.42;;;7.10;73.90;;;;;;5017167;28;20255;-49
2022/04/03 09:34:16;;;;;;;1.88;1.35;;;7.10;73.90;;;;;;5012595;28;20252;-47
2022/04/03 09:36:57;;;;;;;2.00;1.40;;;7.10;73.80;;;;;;5008969;28;20225;-49
2022/04/03 09:39:28;;;;;;;2.33;1.42;;;7.10;73.90;;;;;;5025524;28;20209;-48
2022/04/03 09:41:58;;;;;;;1.20;1.10;;;7.10;73.80;;;;;;5009959;28;20264;-47
2022/04/03 09:44:30;;;;;;;1.95;0.93;;;7.10;73.70;;;;;;5010534;28;20241;-47
2022/04/03 09:47:15;;;;;;;2.97;1.50;;;7.10;73.80;;;;;;5009308;28;20229;-47
2022/04/03 09:49:46;;;;;;;1.83;1.42;;;7.10;73.80;;;;;;5016102;28;20220;-45
2022/04/03 09:52:37;;;;;;;1.80;1.70;;;7.10;73.70;;;;;;5019636;28;20252;-49
2022/04/03 09:55:15;;;;;;;1.35;1.25;;;7.10;73.70;;;;;;5019274;28;20317;-49
2022/04/03 09:57:44;;;;;;;1.60;1.50;;;7.10;73.60;;;;;;5029546;28;20219;-48
2022/04/03 10:00:34;;;;;;;2.50;1.40;;;7.10;73.40;;;;;;5030924;28;20276;-47
2022/04/03 10:03:03;;;;;;;1.60;1.30;;;7.10;73.50;;;;;;5015180;28;20214;-47
2022/04/03 10:05:33;;;;;;;1.70;1.13;;;7.10;73.50;;;;;;5009806;28;20617;-48
2022/04/03 10:08:03;;;;;;;1.50;1.40;;;7.10;73.50;;;;;;5009093;28;20693;-46
2022/04/03 10:10:34;;;;;;;1.98;1.50;;;7.10;73.50;;;;;;5010511;28;20193;-46
2022/04/03 10:13:04;;;;;;;1.30;1.20;;;7.10;73.50;;;;;;5019548;28;20228;-47
2022/04/03 10:15:34;;;;;;;2.40;1.38;;;7.10;73.70;;;;;;5015665;28;20208;-47
2022/04/03 10:18:04;;;;;;;2.38;1.27;;;7.10;73.70;;;;;;5017066;28;20771;-46
2022/04/03 10:20:37;;;;;;;1.40;1.10;;;7.10;73.70;;;;;;5009392;28;20700;-48
2022/04/03 10:23:08;;;;;;;1.67;1.40;;;7.10;73.80;;;;;;5010344;28;20719;-48
2022/04/03 10:25:41;;;;;;;2.00;1.40;;;7.10;73.70;;;;;;5013956;28;20382;-46
2022/04/03 10:28:11;;;;;;;1.40;1.30;;;7.10;73.70;;;;;;5013317;28;20689;-45
2022/04/03 10:30:43;;;;;;;2.33;1.40;;;7.10;73.70;;;;;;5014100;28;20217;-46
2022/04/03 10:33:20;;;;;;;1.45;1.20;;;7.10;73.60;;;;;;5015296;28;20256;-47
2022/04/03 10:35:50;;;;;;;1.13;1.00;;;7.10;73.60;;;;;;5032573;28;20564;-48
2022/04/03 10:38:20;;;;;;;1.83;1.40;;;7.10;73.40;;;;;;5014260;28;20625;-47
2022/04/03 10:40:59;;;;;;;1.73;1.60;;;7.10;73.60;;;;;;5018486;28;20208;-48
2022/04/03 10:43:29;;;;;;;1.40;1.30;;;7.10;73.50;;;;;;5025316;28;20251;-45
2022/04/03 10:45:59;;;;;;;1.88;0.95;;;7.10;73.60;;;;;;5032760;28;20193;-48
2022/04/03 10:48:30;;;;;;;2.35;1.05;;;7.10;73.60;;;;;;5012507;28;20220;-48
2022/04/03 10:51:01;;;;;;;1.33;1.23;;;7.10;73.60;;;;;;5013189;28;20593;-49
2022/04/03 10:53:31;;;;;;;2.45;1.30;;;7.10;73.40;;;;;;5012608;28;20220;-46
2022/04/03 10:56:02;;;;;;;2.55;1.23;;;7.10;73.50;;;;;;5026570;28;20189;-46
2022/04/03 10:58:47;;;;;;;1.63;1.25;;;7.10;73.40;;;;;;5018782;28;20248;-48
2022/04/03 11:01:28;;;;;;;1.75;1.50;;;7.10;73.40;;;;;;5013460;28;20221;-47
2022/04/03 11:04:00;;;;;;;1.10;1.00;;;7.10;73.50;;;;;;5020755;28;20688;-49
2022/04/03 11:06:37;;;;;;;1.10;1.00;;;7.10;73.50;;;;;;5032667;28;20216;-47
2022/04/03 11:09:13;;;;;;;1.85;1.40;;;7.10;73.60;;;;;;5032473;28;20566;-48
2022/04/03 11:11:44;;;;;;;1.25;1.17;;;7.10;73.50;;;;;;5018200;28;20248;-48
2022/04/03 11:14:34;;;;;;;1.45;1.35;;;7.10;73.50;;;;;;5013005;28;20234;-46
2022/04/03 11:17:03;;;;;;;1.20;1.10;;;7.10;73.50;;;;;;5012261;28;20592;-47
2022/04/03 11:19:42;;;;;;;1.27;1.17;;;7.10;73.40;;;;;;5032115;28;20619;-47
2022/04/03 11:22:17;;;;;;;1.85;0.90;;;7.10;73.30;;;;;;5029514;28;20275;-48
2022/04/03 11:24:46;;;;;;;2.35;0.90;;;7.10;73.30;;;;;;5019175;28;20213;-49
2022/04/03 11:27:14;;;;;;;1.63;0.98;;;7.10;73.30;;;;;;5029504;28;20214;-46
2022/04/03 11:29:42;;;;;;;1.35;1.05;;;7.10;73.40;;;;;;5012751;28;20240;-47
2022/04/03 11:32:13;;;;;;;1.35;1.13;;;7.10;73.30;;;;;;5011724;28;20214;-49
2022/04/03 11:34:41;;;;;;;1.40;1.23;;;7.10;74.80;;;;;;5010843;28;20301;-48
2022/04/03 11:37:13;;;;;;;1.20;1.10;;;7.10;73.60;;;;;;5022126;28;20324;-49
2022/04/03 11:39:42;;;;;;;1.55;1.45;;;7.10;73.60;;;;;;5031467;28;20216;-46
2022/04/03 11:42:11;;;;;;;1.88;1.20;;;7.10;73.60;;;;;;5025562;28;20681;-48
2022/04/03 11:44:41;;;;;;;1.33;1.23;;;7.10;73.60;;;;;;5011924;28;20306;-48
2022/04/03 11:47:21;;;;;;;1.60;1.42;;;7.10;73.60;;;;;;5018107;28;20212;-45
2022/04/03 11:50:05;;;;;;;0.98;0.82;;;7.10;73.50;;;;;;5018836;28;20209;-47
2022/04/03 11:52:35;;;;;;;1.60;1.20;;;7.10;73.60;;;;;;5011445;28;20863;-47
2022/04/03 11:55:10;;;;;;;2.03;1.50;;;7.10;73.70;;;;;;5011535;28;20229;-47
2022/04/03 11:57:39;;;;;;;5.47;1.90;;;7.20;72.20;;;;;;5023222;28;20431;-47
2022/04/03 12:00:09;;;;;;;2.35;1.60;;;7.20;71.00;;;;;;5011620;28;20186;-46
2022/04/03 12:02:43;;;;;;;2.85;1.45;;;7.20;71.50;;;;;;5011763;28;20214;-48
2022/04/03 12:05:20;;;;;;;1.60;0.98;;;7.20;71.80;;;;;;5012444;28;20213;-47
2022/04/03 12:07:49;;;;;;;2.05;1.25;;;7.20;72.00;;;;;;5010592;28;20608;-49
2022/04/03 12:10:24;;;;;;;1.20;1.10;;;7.20;72.30;;;;;;5016321;28;20209;-45
2022/04/03 12:12:53;;;;;;;3.13;1.35;;;7.20;72.40;;;;;;5023277;28;20232;-48
2022/04/03 12:15:23;;;;;;;1.60;1.38;;;7.20;72.50;;;;;;5031447;28;20216;-47
2022/04/03 12:18:01;;;;;;;1.88;1.27;;;7.20;72.60;;;;;;5028980;28;20223;-50
2022/04/03 12:20:34;;;;;;;3.28;1.67;;;7.20;72.80;;;;;;5032362;28;20208;-45
2022/04/03 12:23:07;;;;;;;1.95;1.20;;;7.20;72.90;;;;;;5024120;28;20233;-50
2022/04/03 12:25:35;;;;;;;1.98;1.63;;;7.20;73.00;;;;;;5010797;28;20213;-49
2022/04/03 12:28:04;;;;;;;1.88;1.50;;;7.20;73.10;;;;;;5011066;28;20636;-47
2022/04/03 12:30:32;;;;;;;4.53;1.05;;;7.20;73.00;;;;;;5010237;28;20751;-49
2022/04/03 12:33:02;;;;;;;1.45;1.35;;;7.20;73.10;;;;;;5009794;28;20271;-48
2022/04/03 12:35:30;;;;;;;1.85;1.30;;;7.20;73.10;;;;;;5011341;28;20194;-48
2022/04/03 12:38:18;;;;;;;1.42;1.00;;;7.20;73.10;;;;;;5029593;28;20217;-50
2022/04/03 12:40:48;;;;;;;3.25;1.30;;;7.20;73.10;;;;;;5031150;28;20182;-47
2022/04/03 12:43:16;;;;;;;2.00;1.10;;;7.30;73.10;;;;;;5031623;28;20201;-46
2022/04/03 12:45:56;;;;;;;1.42;0.80;;;7.30;73.20;;;;;;5044337;28;20216;-49
2022/04/03 12:48:27;;;;;;;2.97;1.35;;;7.30;73.20;;;;;;5030798;28;20212;-48
2022/04/03 12:50:55;;;;;;;1.25;0.98;;;7.30;73.30;;;;;;5031498;28;20589;-49
2022/04/03 12:53:25;;;;;;;2.70;1.20;;;7.30;73.20;;;;;;5036183;28;20221;-49
2022/04/03 12:55:54;;;;;;;1.15;1.05;;;7.30;73.30;;;;;;5030474;28;20731;-46
2022/04/03 12:58:26;;;;;;;3.40;1.05;;;7.30;73.30;;;;;;5030664;28;20288;-49
2022/04/03 13:00:58;;;;;;;1.50;1.35;;;7.30;73.20;;;;;;5030868;28;20647;-48
2022/04/03 13:03:32;;;;;;;1.67;1.00;;;7.30;73.10;;;;;;5030410;28;20227;-47
2022/04/03 13:06:02;;;;;;;1.23;1.05;;;7.30;73.20;;;;;;5028275;28;20547;-47
2022/04/03 13:08:52;;;;;;;3.25;1.20;;;7.30;73.30;;;;;;5010008;28;20194;-46
2022/04/03 13:11:43;;;;;;;1.40;1.27;;;7.30;73.30;;;;;;5018994;28;20225;-46
2022/04/03 13:14:20;;;;;;;1.60;1.23;;;7.30;73.20;;;;;;5012082;28;20214;-49